Date,TemperatureHighF,TemperatureAvgF,TemperatureLowF,DewpointHighF,DewpointAvgF,DewpointLowF,HumidityHigh,HumidityAvg,HumidityLow,PressureMaxIn,PressureMinIn,WindSpeedMaxMPH,WindSpeedAvgMPH,GustSpeedMaxMPH,PrecipitationSumIn
2013-4-2,68,67,67,61,59,58,78,75,72,0.00,40.00,4,2,4,0.00
2013-4-3,130,73,62,64,61,50,82,66,26,0.00,40.00,101,-9,101,1.42
2013-4-4,88,79,67,69,65,59,75,63,47,0.00,40.00,9,3,9,1.42
2013-4-5,74,73,72,66,66,65,79,77,77,0.00,40.00,2,1,2,0.00
2013-4-6,91,78,58,74,69,58,88,74,56,30.11,30.11,146,4,146,0.76
2013-4-7,89,77,70,74,69,65,90,77,57,0.00,40.00,13,2,13,0.00
2013-4-8,86,75,-8,70,66,-8,89,75,55,0.00,40.00,14,-2,14,0.00
2013-4-9,82,73,69,71,66,64,93,81,62,0.00,40.00,3,1,3,2.17
2013-4-10,88,78,32,72,66,32,78,66,57,0.00,40.00,11,4,11,0.09
2013-4-11,88,76,-8,71,68,-10,89,75,56,0.00,40.00,27,3,27,0.76
2013-4-12,70,70,70,66,66,66,86,86,86,0.00,40.00,2,2,2,0.00
2013-4-13,86,79,73,74,70,65,77,72,63,0.00,40.00,8,3,8,0.00
2013-4-14,88,77,72,75,70,65,92,79,62,0.00,40.00,14,3,14,0.00
2013-4-15,88,77,71,74,70,66,89,77,62,0.00,40.00,11,3,11,0.00
2013-4-16,88,77,69,73,69,65,89,76,60,0.00,40.00,9,3,9,0.00
2013-4-17,87,77,69,73,66,60,87,71,51,0.00,40.00,13,3,13,0.00
2013-4-18,86,77,71,69,65,62,78,66,53,0.00,40.00,21,3,21,0.00
2013-4-19,87,76,68,72,66,62,87,73,58,0.00,40.00,11,-8,11,0.00
2013-4-20,87,77,69,71,68,65,89,74,55,0.00,40.00,10,3,10,0.00
2013-4-21,88,77,70,73,68,64,87,77,60,0.00,40.00,11,3,11,0.00
2013-4-22,89,78,71,74,70,66,88,77,62,0.00,40.00,12,3,12,0.00
2013-4-23,87,78,70,75,71,67,90,79,63,0.00,40.00,14,0,14,0.00
2013-4-24,88,78,72,74,71,68,90,78,60,0.00,40.00,17,3,17,0.00
2013-4-25,90,78,70,72,68,61,93,71,50,30.09,30.08,15,3,15,0.00
2013-4-26,89,78,70,69,64,61,76,64,46,0.00,40.00,15,3,15,0.00
2013-4-27,88,77,69,71,66,60,81,69,53,30.03,30.03,10,3,10,0.00
2013-4-28,89,78,70,74,69,65,86,74,53,29.96,29.96,14,3,14,0.00
2013-4-29,88,79,70,74,70,65,86,75,60,30.09,30.09,15,-3,15,0.00
2013-4-30,87,78,71,74,69,65,83,75,64,0.00,40.00,10,3,10,0.00
2013-5-1,89,76,69,72,68,66,89,77,52,0.00,40.00,12,3,12,0.00
2013-6-22,76,76,76,70,70,70,80,80,80,0.00,40.00,1,1,1,0.00
2013-6-26,86,86,86,69,69,69,57,57,57,0.00,40.00,4,4,4,0.00
2013-6-28,88,88,88,73,73,73,60,60,60,0.00,40.00,8,8,8,0.00
2013-6-29,79,79,79,70,70,70,74,74,74,0.00,40.00,6,6,6,0.00
2013-6-30,83,83,83,72,72,72,71,71,71,0.00,40.00,4,4,4,0.00
2013-7-6,77,77,77,66,66,66,69,69,69,30.08,30.08,2,2,0,0.00
2013-7-7,76,74,73,67,66,65,76,75,74,30.11,30.08,3,2,1,0.00
2013-7-8,70,70,70,61,61,61,73,73,73,30.02,30.02,1,1,1,0.01
2013-7-10,69,69,69,62,62,62,79,79,79,29.97,29.97,0,0,0,0.00
2013-7-12,79,79,79,68,68,68,70,70,70,29.90,29.90,2,2,2,0.00
2013-7-16,79,76,73,69,68,66,80,76,72,29.94,29.90,8,5,8,0.00
2013-7-19,67,67,67,60,60,60,78,78,78,29.97,29.97,2,2,0,0.00
2013-7-20,-200,0,153,100,100,100,37,37,37,0.00,40.00,0,-999,0,0.00
2013-7-21,76,76,76,60,60,60,56,56,56,30.04,30.04,8,8,0,0.00
2013-7-22,70,70,70,61,61,61,74,74,74,30.13,30.13,8,8,0,0.00
2013-12-7,75,75,75,67,67,67,77,77,77,29.96,29.96,3,3,3,0.00
2013-12-8,68,68,68,65,65,65,93,93,93,30.01,30.01,1,1,0,0.00
2013-12-10,69,69,69,67,67,67,94,94,94,30.07,30.07,4,4,0,0.00
2013-12-11,80,80,80,64,64,64,59,59,59,30.06,30.06,6,6,0,0.00
2013-12-14,77,77,77,68,68,68,76,76,76,30.08,30.08,14,14,0,0.00
2013-12-17,84,84,84,72,72,72,69,69,69,30.08,30.08,6,6,0,0.00
2013-12-18,80,80,80,69,69,69,68,68,68,30.05,30.05,2,2,0,0.00
2013-12-19,67,67,67,63,63,63,87,87,87,30.14,30.14,0,0,0,0.00
2013-12-21,73,73,73,64,64,64,75,75,75,30.17,30.17,2,2,0,0.00
2013-12-23,73,73,73,63,63,63,71,71,71,30.14,30.14,8,8,0,0.00
2013-12-24,78,78,78,65,65,65,64,64,64,30.07,30.07,12,12,0,0.00
2013-12-26,70,70,70,66,66,66,84,84,84,30.18,30.18,2,2,0,0.00
2013-12-28,66,66,66,63,63,63,90,90,90,30.12,30.12,3,3,0,0.00
2013-12-30,70,70,70,65,65,65,84,84,84,30.15,30.15,2,2,0,0.00
2014-1-1,71,71,71,65,65,65,80,80,80,30.11,30.11,2,2,0,0.00